createdAt,value
2018-10-02T00:00:11.710Z,0
2018-10-02T00:00:37.872Z,0
2018-10-02T00:01:04.009Z,0
2018-10-02T00:01:30.157Z,0
2018-10-02T00:01:56.276Z,0
2018-10-02T00:02:22.451Z,0
2018-10-02T00:02:48.614Z,0
2018-10-02T00:03:14.732Z,0
2018-10-02T00:03:40.870Z,0
2018-10-02T00:04:07.003Z,0
2018-10-02T00:04:33.131Z,0
2018-10-02T00:04:59.259Z,0
2018-10-02T00:05:25.383Z,0
2018-10-02T00:05:51.518Z,0
2018-10-02T00:06:17.703Z,0
2018-10-02T00:06:43.829Z,0
2018-10-02T00:07:09.962Z,0
2018-10-02T00:07:36.119Z,0
2018-10-02T00:08:02.240Z,0
2018-10-02T00:08:28.380Z,0
2018-10-02T00:08:54.500Z,0
2018-10-02T00:09:20.678Z,0
2018-10-02T00:09:46.800Z,0
2018-10-02T00:10:12.929Z,0
2018-10-02T00:10:39.076Z,0
2018-10-02T00:11:05.205Z,0
2018-10-02T00:11:31.327Z,0
2018-10-02T00:11:57.457Z,0
2018-10-02T00:12:23.578Z,0
2018-10-02T00:12:49.705Z,0
2018-10-02T00:13:15.852Z,0
2018-10-02T00:13:41.985Z,0
2018-10-02T00:14:08.110Z,0
2018-10-02T00:14:34.258Z,0
2018-10-02T00:15:00.383Z,0
2018-10-02T00:15:26.515Z,0
2018-10-02T00:15:52.666Z,0
2018-10-02T00:16:18.789Z,0
2018-10-02T00:16:44.915Z,0
2018-10-02T00:17:11.070Z,0
2018-10-02T00:17:37.213Z,0
2018-10-02T00:18:03.369Z,0
2018-10-02T00:18:29.500Z,0
2018-10-02T00:18:55.625Z,0
2018-10-02T00:19:21.755Z,0
2018-10-02T00:19:47.897Z,0
2018-10-02T00:20:14.057Z,0
2018-10-02T00:20:40.177Z,0
2018-10-02T00:21:06.301Z,0
2018-10-02T00:21:32.433Z,0
2018-10-02T00:21:58.554Z,0
2018-10-02T00:22:24.683Z,0
2018-10-02T00:22:50.812Z,0
2018-10-02T00:23:16.960Z,0
2018-10-02T00:23:43.088Z,0
2018-10-02T00:24:09.216Z,0
2018-10-02T00:24:35.342Z,0
2018-10-02T00:25:01.470Z,0
2018-10-02T00:25:27.602Z,0
2018-10-02T00:25:53.754Z,0
2018-10-02T00:26:19.919Z,0
2018-10-02T00:26:46.049Z,0
2018-10-02T00:27:12.184Z,0
2018-10-02T00:27:38.302Z,0
2018-10-02T00:28:04.452Z,0
2018-10-02T00:28:30.601Z,0
2018-10-02T00:28:56.726Z,0
2018-10-02T00:29:22.965Z,0
2018-10-02T00:29:49.112Z,0
2018-10-02T00:30:15.297Z,0
2018-10-02T00:30:41.511Z,0
2018-10-02T00:31:08.323Z,0
2018-10-02T00:31:34.565Z,0
2018-10-02T00:32:01.087Z,0
2018-10-02T00:32:28.220Z,0
2018-10-02T00:32:54.365Z,0
2018-10-02T00:33:20.566Z,0
2018-10-02T00:33:46.750Z,0
2018-10-02T00:34:13.396Z,0
2018-10-02T00:34:39.600Z,0
2018-10-02T00:35:05.946Z,0
2018-10-02T00:35:32.531Z,0
2018-10-02T00:35:58.934Z,0
2018-10-02T00:36:25.300Z,0
2018-10-02T00:36:51.573Z,0
2018-10-02T00:37:18.090Z,0
2018-10-02T00:37:45.016Z,0
2018-10-02T00:38:11.146Z,0
2018-10-02T00:38:37.589Z,0
2018-10-02T00:39:03.978Z,0
2018-10-02T00:39:30.971Z,0
2018-10-02T00:39:57.054Z,0
2018-10-02T00:40:23.186Z,0
2018-10-02T00:40:49.425Z,0
2018-10-02T00:41:16.274Z,0
2018-10-02T00:41:42.886Z,0
2018-10-02T00:42:09.491Z,0
2018-10-02T00:42:35.614Z,0
2018-10-02T00:43:01.745Z,0
2018-10-02T00:43:27.876Z,0
2018-10-02T00:43:54.136Z,0
2018-10-02T00:44:20.566Z,0
2018-10-02T00:44:46.930Z,0
2018-10-02T00:45:13.083Z,0
2018-10-02T00:45:39.205Z,0
2018-10-02T00:46:05.337Z,0
2018-10-02T00:46:31.621Z,0
2018-10-02T00:46:58.438Z,0
2018-10-02T00:47:24.519Z,0
2018-10-02T00:47:50.647Z,0
2018-10-02T00:48:17.058Z,0
2018-10-02T00:48:43.247Z,0
2018-10-02T00:49:09.584Z,0
2018-10-02T00:49:35.768Z,0
2018-10-02T00:50:01.904Z,0
2018-10-02T00:50:28.251Z,0
2018-10-02T00:50:54.374Z,0
2018-10-02T00:51:20.868Z,0
2018-10-02T00:51:47.002Z,0
2018-10-02T00:52:13.396Z,0
2018-10-02T00:52:39.497Z,0
2018-10-02T00:53:05.712Z,0
2018-10-02T00:53:32.314Z,0
2018-10-02T00:53:58.642Z,0
2018-10-02T00:54:24.724Z,0
2018-10-02T00:54:50.872Z,0
2018-10-02T00:55:17.018Z,0
2018-10-02T00:55:43.172Z,0
2018-10-02T00:56:09.493Z,0
2018-10-02T00:56:36.069Z,0
2018-10-02T00:57:02.446Z,0
2018-10-02T00:57:28.572Z,0
2018-10-02T00:57:54.925Z,0
2018-10-02T00:58:20.999Z,0
2018-10-02T00:58:47.147Z,0
2018-10-02T00:59:13.272Z,0
2018-10-02T00:59:39.411Z,0
2018-10-02T01:00:05.553Z,0
2018-10-02T01:00:31.683Z,0
2018-10-02T01:00:57.811Z,0
2018-10-02T01:01:23.929Z,0
2018-10-02T01:01:50.084Z,0
2018-10-02T01:02:16.217Z,0
2018-10-02T01:02:42.336Z,0
2018-10-02T01:03:08.479Z,0
2018-10-02T01:03:34.616Z,0
2018-10-02T01:04:00.758Z,0
2018-10-02T01:04:26.887Z,0
2018-10-02T01:04:53.012Z,0
2018-10-02T01:05:19.140Z,0
2018-10-02T01:05:45.288Z,0
2018-10-02T01:06:11.418Z,0
2018-10-02T01:06:37.549Z,0
2018-10-02T01:07:03.693Z,0
2018-10-02T01:07:29.844Z,0
2018-10-02T01:07:55.968Z,0
2018-10-02T01:08:22.101Z,0
2018-10-02T01:08:48.248Z,0
2018-10-02T01:09:14.386Z,0
2018-10-02T01:09:40.524Z,0
2018-10-02T01:10:06.649Z,0
2018-10-02T01:10:32.786Z,0
2018-10-02T01:10:58.934Z,0
2018-10-02T01:11:25.061Z,0
2018-10-02T01:11:51.182Z,0
2018-10-02T01:12:17.305Z,0
2018-10-02T01:12:43.436Z,0
2018-10-02T01:13:09.565Z,0
2018-10-02T01:13:35.712Z,0
2018-10-02T01:14:01.872Z,0
2018-10-02T01:14:28.022Z,0
2018-10-02T01:14:54.145Z,0
2018-10-02T01:15:20.290Z,0
2018-10-02T01:15:46.420Z,0
2018-10-02T01:16:12.594Z,0
2018-10-02T01:16:38.720Z,0
2018-10-02T01:17:04.850Z,0
2018-10-02T01:17:31.003Z,0
2018-10-02T01:17:57.128Z,0
2018-10-02T01:18:23.298Z,0
2018-10-02T01:18:49.455Z,0
2018-10-02T01:19:15.605Z,0
2018-10-02T01:19:41.728Z,0
2018-10-02T01:20:07.871Z,0
2018-10-02T01:20:34.028Z,0
2018-10-02T01:21:00.150Z,0
2018-10-02T01:21:26.325Z,0
2018-10-02T01:21:52.466Z,0
2018-10-02T01:22:18.597Z,0
2018-10-02T01:22:44.727Z,0
2018-10-02T01:23:10.853Z,0
2018-10-02T01:23:37.013Z,0
2018-10-02T01:24:03.148Z,0
2018-10-02T01:24:29.281Z,0
2018-10-02T01:24:55.404Z,0
2018-10-02T01:25:21.534Z,0
2018-10-02T01:25:47.685Z,0
2018-10-02T01:26:13.812Z,0
2018-10-02T01:26:39.955Z,0
2018-10-02T01:27:06.087Z,0
2018-10-02T01:27:32.212Z,0
2018-10-02T01:27:58.350Z,0
2018-10-02T01:28:24.473Z,0
2018-10-02T01:28:50.601Z,0
2018-10-02T01:29:16.745Z,0
2018-10-02T01:29:42.874Z,0
2018-10-02T01:30:09.002Z,0
2018-10-02T01:30:35.129Z,0
2018-10-02T01:31:01.254Z,0
2018-10-02T01:31:27.392Z,0
2018-10-02T01:31:53.521Z,0
2018-10-02T01:32:19.647Z,0
2018-10-02T01:32:45.769Z,0
2018-10-02T01:33:11.899Z,0
2018-10-02T01:33:38.027Z,0
2018-10-02T01:34:04.200Z,0
2018-10-02T01:34:30.340Z,0
2018-10-02T01:34:56.475Z,0
2018-10-02T01:35:22.601Z,0
2018-10-02T01:35:48.727Z,0
2018-10-02T01:36:14.854Z,0
2018-10-02T01:36:40.987Z,0
2018-10-02T01:37:07.160Z,0
2018-10-02T01:37:33.283Z,0
2018-10-02T01:37:59.421Z,0
2018-10-02T01:38:25.529Z,0
2018-10-02T01:38:51.662Z,0
2018-10-02T01:39:17.789Z,0
2018-10-02T01:39:43.920Z,0
2018-10-02T01:40:10.067Z,0
2018-10-02T01:40:36.198Z,0
2018-10-02T01:41:02.328Z,0
2018-10-02T01:41:28.479Z,0
2018-10-02T01:41:54.607Z,0
2018-10-02T01:42:20.743Z,0
2018-10-02T01:42:46.872Z,0
2018-10-02T01:43:12.996Z,0
2018-10-02T01:43:39.144Z,0
2018-10-02T01:44:05.279Z,0
2018-10-02T01:44:31.420Z,0
2018-10-02T01:44:57.543Z,0
2018-10-02T01:45:23.701Z,0
2018-10-02T01:45:49.822Z,0
2018-10-02T01:46:15.975Z,0
2018-10-02T01:46:42.103Z,0
2018-10-02T01:47:08.228Z,0
2018-10-02T01:47:34.355Z,0
2018-10-02T01:48:00.491Z,0
2018-10-02T01:48:26.612Z,0
2018-10-02T01:48:52.744Z,0
2018-10-02T01:49:18.887Z,0
2018-10-02T01:49:45.018Z,0
2018-10-02T01:50:11.147Z,0
2018-10-02T01:50:37.321Z,0
2018-10-02T01:51:03.455Z,0
2018-10-02T01:51:29.577Z,0
2018-10-02T01:51:55.712Z,0
2018-10-02T01:52:21.839Z,0
2018-10-02T01:52:47.969Z,0
2018-10-02T01:53:14.096Z,0
2018-10-02T01:53:40.221Z,0
2018-10-02T01:54:06.371Z,0
2018-10-02T01:54:32.500Z,0
2018-10-02T01:54:58.647Z,0
2018-10-02T01:55:24.773Z,0
2018-10-02T01:55:50.904Z,0
2018-10-02T01:56:17.035Z,0
2018-10-02T01:56:43.160Z,0
2018-10-02T01:57:09.288Z,0
2018-10-02T01:57:35.436Z,0
2018-10-02T01:58:01.564Z,0
2018-10-02T01:58:27.711Z,0
2018-10-02T01:58:53.874Z,0
2018-10-02T01:59:20.029Z,0
2018-10-02T01:59:46.153Z,0
2018-10-02T02:00:12.279Z,0
2018-10-02T02:00:38.413Z,0
2018-10-02T02:01:04.538Z,0
2018-10-02T02:01:30.668Z,0
2018-10-02T02:01:56.791Z,0
2018-10-02T02:02:22.918Z,0
2018-10-02T02:02:49.051Z,0
2018-10-02T02:03:15.183Z,0
2018-10-02T02:03:41.357Z,0
2018-10-02T02:04:07.491Z,0
2018-10-02T02:04:33.619Z,0
2018-10-02T02:04:59.754Z,0
2018-10-02T02:05:25.877Z,0
2018-10-02T02:05:52.028Z,0
2018-10-02T02:06:18.162Z,0
2018-10-02T02:06:44.313Z,0
2018-10-02T02:07:10.464Z,0
2018-10-02T02:07:36.607Z,0
2018-10-02T02:08:02.732Z,0
2018-10-02T02:08:28.864Z,0
2018-10-02T02:08:54.992Z,0
2018-10-02T02:09:21.117Z,0
2018-10-02T02:09:47.251Z,0
2018-10-02T02:10:13.400Z,0
2018-10-02T02:10:39.531Z,0
2018-10-02T02:11:05.657Z,0
2018-10-02T02:11:31.784Z,0
2018-10-02T02:11:57.937Z,0
2018-10-02T02:12:24.064Z,0
2018-10-02T02:12:50.193Z,0
2018-10-02T02:13:16.335Z,0
2018-10-02T02:13:42.462Z,0
2018-10-02T02:14:08.590Z,0
2018-10-02T02:14:34.721Z,0
2018-10-02T02:15:00.847Z,0
2018-10-02T02:15:26.996Z,0
2018-10-02T02:15:53.118Z,0
2018-10-02T02:16:19.268Z,0
2018-10-02T02:16:45.389Z,0
2018-10-02T02:17:11.512Z,0
2018-10-02T02:17:37.641Z,0
2018-10-02T02:18:03.778Z,0
2018-10-02T02:18:29.906Z,0
2018-10-02T02:18:56.031Z,0
2018-10-02T02:19:22.161Z,0
2018-10-02T02:19:48.285Z,0
2018-10-02T02:20:14.413Z,0
2018-10-02T02:20:40.567Z,0
2018-10-02T02:21:06.690Z,0
2018-10-02T02:21:32.816Z,0
2018-10-02T02:21:58.944Z,0
2018-10-02T02:22:25.076Z,0
2018-10-02T02:22:51.241Z,0
2018-10-02T02:23:17.376Z,0
2018-10-02T02:23:43.524Z,0
2018-10-02T02:24:09.669Z,0
2018-10-02T02:24:35.798Z,0
2018-10-02T02:25:01.936Z,0
2018-10-02T02:25:28.057Z,0
2018-10-02T02:25:54.186Z,0
2018-10-02T02:26:20.317Z,0
2018-10-02T02:26:46.440Z,0
2018-10-02T02:27:12.595Z,0
2018-10-02T02:27:38.721Z,0
2018-10-02T02:28:04.850Z,0
2018-10-02T02:28:30.976Z,0
2018-10-02T02:28:57.127Z,0
2018-10-02T02:29:23.254Z,0
2018-10-02T02:29:49.382Z,0
2018-10-02T02:30:15.530Z,0
2018-10-02T02:30:41.679Z,0
2018-10-02T02:31:07.825Z,0
2018-10-02T02:31:34.001Z,0
2018-10-02T02:32:00.137Z,0
2018-10-02T02:32:26.300Z,0
2018-10-02T02:32:52.431Z,0
2018-10-02T02:33:18.559Z,0
2018-10-02T02:33:44.718Z,0
2018-10-02T02:34:10.839Z,0
2018-10-02T02:34:37.005Z,0
2018-10-02T02:35:03.137Z,0
2018-10-02T02:35:29.279Z,0
2018-10-02T02:35:55.427Z,0
2018-10-02T02:36:21.601Z,0
2018-10-02T02:36:47.742Z,0
2018-10-02T02:37:13.903Z,0
2018-10-02T02:37:40.066Z,0
2018-10-02T02:38:06.208Z,0
2018-10-02T02:38:32.378Z,0
2018-10-02T02:38:58.486Z,0
2018-10-02T02:39:24.654Z,0
2018-10-02T02:39:50.861Z,0
2018-10-02T02:40:16.993Z,0
2018-10-02T02:40:43.156Z,0
2018-10-02T02:41:09.286Z,0
2018-10-02T02:41:35.441Z,0
2018-10-02T02:42:01.588Z,0
2018-10-02T02:42:27.712Z,0
2018-10-02T02:42:53.860Z,0
2018-10-02T02:43:20.042Z,0
2018-10-02T02:43:46.190Z,0
2018-10-02T02:44:12.345Z,0
2018-10-02T02:44:38.474Z,0
2018-10-02T02:45:04.594Z,0
2018-10-02T02:45:30.741Z,0
2018-10-02T02:45:56.866Z,0
2018-10-02T02:46:22.993Z,0
2018-10-02T02:46:49.144Z,0
2018-10-02T02:47:15.274Z,0
2018-10-02T02:47:41.418Z,0
2018-10-02T02:48:07.553Z,0
2018-10-02T02:48:33.676Z,0
2018-10-02T02:48:59.806Z,0
2018-10-02T02:49:25.955Z,0
2018-10-02T02:49:52.110Z,0
2018-10-02T02:50:18.243Z,0
2018-10-02T02:50:44.364Z,0
2018-10-02T02:51:10.532Z,0
2018-10-02T02:51:36.685Z,0
2018-10-02T02:52:02.822Z,0
2018-10-02T02:52:29.022Z,0
2018-10-02T02:52:55.149Z,0
2018-10-02T02:53:21.315Z,0
2018-10-02T02:53:47.463Z,0
2018-10-02T02:54:13.644Z,0
2018-10-02T02:54:39.769Z,0
2018-10-02T02:55:05.924Z,0
2018-10-02T02:55:32.073Z,0
2018-10-02T02:55:58.268Z,0
2018-10-02T02:56:24.464Z,0
2018-10-02T02:56:50.615Z,0
2018-10-02T02:57:16.768Z,0
2018-10-02T02:57:42.898Z,0
2018-10-02T02:58:09.066Z,0
2018-10-02T02:58:35.224Z,0
2018-10-02T02:59:01.378Z,0
2018-10-02T02:59:27.523Z,0
2018-10-02T02:59:53.647Z,0
2018-10-02T03:00:19.778Z,0
2018-10-02T03:00:45.934Z,0
2018-10-02T03:01:12.082Z,0
2018-10-02T03:01:38.233Z,0
2018-10-02T03:02:04.403Z,0
2018-10-02T03:02:30.532Z,0
2018-10-02T03:02:56.660Z,0
2018-10-02T03:03:22.827Z,0
2018-10-02T03:03:48.978Z,0
2018-10-02T03:04:15.133Z,0
2018-10-02T03:04:41.281Z,0
2018-10-02T03:05:07.440Z,0
2018-10-02T03:05:33.593Z,0
2018-10-02T03:05:59.725Z,0
2018-10-02T03:06:25.850Z,0
2018-10-02T03:06:51.975Z,0
2018-10-02T03:07:18.127Z,0
2018-10-02T03:07:44.305Z,0
2018-10-02T03:08:10.469Z,0
2018-10-02T03:08:36.635Z,0
2018-10-02T03:09:02.758Z,0
2018-10-02T03:09:28.929Z,0
2018-10-02T03:09:55.104Z,0
2018-10-02T03:10:21.230Z,0
2018-10-02T03:10:47.360Z,0
2018-10-02T03:11:13.494Z,0
2018-10-02T03:11:39.624Z,0
2018-10-02T03:12:05.753Z,0
2018-10-02T03:12:31.876Z,0
2018-10-02T03:12:58.002Z,0
2018-10-02T03:13:24.154Z,0
2018-10-02T03:13:50.302Z,0
2018-10-02T03:14:16.434Z,0
2018-10-02T03:14:42.560Z,0
2018-10-02T03:15:08.733Z,0
2018-10-02T03:15:34.867Z,0
2018-10-02T03:16:01.008Z,0
2018-10-02T03:16:27.156Z,0
2018-10-02T03:16:53.291Z,0
2018-10-02T03:17:19.460Z,0
2018-10-02T03:17:45.593Z,0
2018-10-02T03:18:11.723Z,0
2018-10-02T03:18:37.851Z,0
2018-10-02T03:19:03.976Z,0
2018-10-02T03:19:30.101Z,0
2018-10-02T03:19:56.224Z,0
2018-10-02T03:20:22.350Z,0
2018-10-02T03:20:48.474Z,0
2018-10-02T03:21:14.653Z,0
2018-10-02T03:21:40.926Z,0
2018-10-02T03:22:06.952Z,0
2018-10-02T03:22:33.106Z,0
2018-10-02T03:22:59.229Z,0
2018-10-02T03:23:25.359Z,0
2018-10-02T03:23:51.515Z,0
2018-10-02T03:24:17.665Z,0
2018-10-02T03:24:43.821Z,0
2018-10-02T03:25:09.953Z,0
2018-10-02T03:25:36.097Z,0
2018-10-02T03:26:02.227Z,0
2018-10-02T03:26:28.350Z,0
2018-10-02T03:26:54.486Z,0
2018-10-02T03:27:20.616Z,0
2018-10-02T03:27:46.758Z,0
2018-10-02T03:28:12.908Z,0
2018-10-02T03:28:39.078Z,0
2018-10-02T03:29:05.254Z,0
2018-10-02T03:29:31.375Z,0
2018-10-02T03:29:57.522Z,0
2018-10-02T03:30:23.673Z,0
2018-10-02T03:30:49.800Z,0
2018-10-02T03:31:15.962Z,0
2018-10-02T03:31:42.114Z,0
2018-10-02T03:32:08.310Z,0
2018-10-02T03:32:34.461Z,0
2018-10-02T03:33:00.582Z,0
2018-10-02T03:33:26.710Z,0
2018-10-02T03:33:52.836Z,0
2018-10-02T03:34:18.990Z,0
2018-10-02T03:34:45.142Z,0
2018-10-02T03:35:11.270Z,0
2018-10-02T03:35:37.402Z,0
2018-10-02T03:36:03.529Z,0
2018-10-02T03:36:29.685Z,0
2018-10-02T03:36:55.801Z,0
2018-10-02T03:37:21.936Z,0
2018-10-02T03:37:48.087Z,0
2018-10-02T03:38:14.195Z,0
2018-10-02T03:38:40.317Z,0
2018-10-02T03:39:06.452Z,0
2018-10-02T03:39:32.593Z,0
2018-10-02T03:39:58.733Z,0
2018-10-02T03:40:24.884Z,0
2018-10-02T03:40:51.050Z,0
2018-10-02T03:41:17.177Z,0
2018-10-02T03:41:43.299Z,0
2018-10-02T03:42:09.478Z,0
2018-10-02T03:42:35.603Z,0
2018-10-02T03:43:01.746Z,0
2018-10-02T03:43:27.899Z,0
2018-10-02T03:43:54.065Z,0
2018-10-02T03:44:20.209Z,0
2018-10-02T03:44:46.356Z,0
2018-10-02T03:45:12.491Z,0
2018-10-02T03:45:38.657Z,0
2018-10-02T03:46:04.835Z,0
2018-10-02T03:46:30.970Z,0
2018-10-02T03:46:57.135Z,0
2018-10-02T03:47:23.290Z,0
2018-10-02T03:47:49.433Z,0
2018-10-02T03:48:15.583Z,0
2018-10-02T03:48:41.767Z,0
2018-10-02T03:49:07.864Z,0
2018-10-02T03:49:34.035Z,0
2018-10-02T03:50:00.137Z,0
2018-10-02T03:50:26.294Z,0
2018-10-02T03:50:52.445Z,0
2018-10-02T03:51:18.565Z,0
2018-10-02T03:51:44.718Z,0
2018-10-02T03:52:10.863Z,0
2018-10-02T03:52:37.040Z,0
2018-10-02T03:53:03.181Z,0
2018-10-02T03:53:29.327Z,0
2018-10-02T03:53:55.501Z,0
2018-10-02T03:54:21.671Z,0
2018-10-02T03:54:47.823Z,0
2018-10-02T03:55:13.958Z,0
2018-10-02T03:55:40.108Z,0
2018-10-02T03:56:06.288Z,0
2018-10-02T03:56:32.467Z,0
2018-10-02T03:56:58.601Z,0
2018-10-02T03:57:24.758Z,0
2018-10-02T03:57:50.903Z,0
2018-10-02T03:58:17.057Z,0
2018-10-02T03:58:43.204Z,0
2018-10-02T03:59:09.336Z,0
2018-10-02T03:59:35.460Z,0
2018-10-02T04:00:01.615Z,0
2018-10-02T04:00:27.782Z,0
2018-10-02T04:00:53.907Z,0
2018-10-02T04:01:20.103Z,0
2018-10-02T04:01:46.229Z,0
2018-10-02T04:02:12.374Z,0
2018-10-02T04:02:38.504Z,0
2018-10-02T04:03:04.661Z,0
2018-10-02T04:03:30.840Z,0
2018-10-02T04:03:56.947Z,0
2018-10-02T04:04:23.111Z,0
2018-10-02T04:04:49.281Z,0
2018-10-02T04:05:15.447Z,0
2018-10-02T04:05:41.575Z,0
2018-10-02T04:06:07.747Z,0
2018-10-02T04:06:33.914Z,0
2018-10-02T04:07:00.043Z,0
2018-10-02T04:07:26.167Z,0
2018-10-02T04:07:52.314Z,0
2018-10-02T04:08:18.468Z,0
2018-10-02T04:08:44.596Z,0
2018-10-02T04:09:10.720Z,0
2018-10-02T04:09:36.888Z,0
2018-10-02T04:10:03.017Z,0
2018-10-02T04:10:29.197Z,0
2018-10-02T04:10:55.343Z,0
2018-10-02T04:11:21.492Z,0
2018-10-02T04:11:47.653Z,0
2018-10-02T04:12:13.809Z,0
2018-10-02T04:12:39.939Z,0
2018-10-02T04:13:06.116Z,0
2018-10-02T04:13:32.231Z,0
2018-10-02T04:13:58.377Z,0
2018-10-02T04:14:24.504Z,0
2018-10-02T04:14:50.659Z,0
2018-10-02T04:15:16.785Z,0
2018-10-02T04:15:42.934Z,0
2018-10-02T04:16:09.085Z,0
2018-10-02T04:16:35.233Z,0
2018-10-02T04:17:01.359Z,0
2018-10-02T04:17:27.485Z,0
2018-10-02T04:17:53.669Z,0
2018-10-02T04:18:19.814Z,0
2018-10-02T04:18:45.943Z,0
2018-10-02T04:19:12.066Z,0
2018-10-02T04:19:38.216Z,0
2018-10-02T04:20:04.343Z,0
2018-10-02T04:20:30.492Z,0
2018-10-02T04:20:56.624Z,0
2018-10-02T04:21:22.747Z,0
2018-10-02T04:21:48.876Z,0
2018-10-02T04:22:15.000Z,0
2018-10-02T04:22:41.121Z,0
2018-10-02T04:23:07.271Z,0
2018-10-02T04:23:33.404Z,0
2018-10-02T04:23:59.536Z,0
2018-10-02T04:24:25.678Z,0
2018-10-02T04:24:51.810Z,0
2018-10-02T04:25:17.929Z,0
2018-10-02T04:25:44.059Z,0
2018-10-02T04:26:10.183Z,0
2018-10-02T04:26:36.337Z,0
2018-10-02T04:27:02.462Z,0
2018-10-02T04:27:28.638Z,0
2018-10-02T04:27:54.831Z,0
2018-10-02T04:28:20.962Z,0
2018-10-02T04:28:47.048Z,0
2018-10-02T04:29:13.184Z,0
2018-10-02T04:29:39.311Z,0
2018-10-02T04:30:05.462Z,0
2018-10-02T04:30:31.589Z,0
2018-10-02T04:30:57.737Z,0
2018-10-02T04:31:23.871Z,0
2018-10-02T04:31:49.997Z,0
2018-10-02T04:32:16.126Z,0
2018-10-02T04:32:42.272Z,0
2018-10-02T04:33:08.405Z,0
2018-10-02T04:33:34.597Z,0
2018-10-02T04:34:00.712Z,0
2018-10-02T04:34:26.853Z,0
2018-10-02T04:34:52.977Z,0
2018-10-02T04:35:19.106Z,0
2018-10-02T04:35:45.235Z,0
2018-10-02T04:36:11.362Z,0
2018-10-02T04:36:37.507Z,0
2018-10-02T04:37:03.639Z,0
2018-10-02T04:37:29.767Z,0
2018-10-02T04:37:55.901Z,0
2018-10-02T04:38:22.028Z,0
2018-10-02T04:38:48.151Z,0
2018-10-02T04:39:14.294Z,0
2018-10-02T04:39:40.505Z,0
2018-10-02T04:40:06.589Z,0
2018-10-02T04:40:32.717Z,0
2018-10-02T04:40:58.871Z,0
2018-10-02T04:41:24.998Z,0
2018-10-02T04:41:51.133Z,0
2018-10-02T04:42:17.255Z,0
2018-10-02T04:42:43.389Z,0
2018-10-02T04:43:09.515Z,0
2018-10-02T04:43:35.661Z,0
2018-10-02T04:44:01.789Z,0
2018-10-02T04:44:27.915Z,0
2018-10-02T04:44:54.040Z,0
2018-10-02T04:45:20.170Z,0
2018-10-02T04:45:46.294Z,0
2018-10-02T04:46:12.447Z,0
2018-10-02T04:46:38.620Z,0
2018-10-02T04:47:04.737Z,0
2018-10-02T04:47:30.864Z,0
2018-10-02T04:47:56.982Z,0
2018-10-02T04:48:23.112Z,0
2018-10-02T04:48:49.242Z,0
2018-10-02T04:49:15.374Z,0
2018-10-02T04:49:41.501Z,0
2018-10-02T04:50:07.652Z,0
2018-10-02T04:50:33.785Z,0
2018-10-02T04:50:59.914Z,0
2018-10-02T04:51:26.043Z,0
2018-10-02T04:51:52.199Z,0
2018-10-02T04:52:18.326Z,0
2018-10-02T04:52:44.464Z,0
2018-10-02T04:53:10.596Z,0
2018-10-02T04:53:36.723Z,0
2018-10-02T04:54:02.843Z,0
2018-10-02T04:54:28.994Z,0
2018-10-02T04:54:55.149Z,0
2018-10-02T04:55:21.249Z,0
2018-10-02T04:55:47.535Z,0
2018-10-02T04:56:13.724Z,0
2018-10-02T04:56:39.665Z,0
2018-10-02T04:57:05.813Z,0
2018-10-02T04:57:31.937Z,0
2018-10-02T04:57:58.092Z,0
2018-10-02T04:58:24.222Z,0
2018-10-02T04:58:50.340Z,0
2018-10-02T04:59:16.472Z,0
2018-10-02T04:59:42.623Z,0
2018-10-02T05:00:08.758Z,0
2018-10-02T05:00:34.902Z,0
2018-10-02T05:01:01.030Z,0
2018-10-02T05:01:27.153Z,0
2018-10-02T05:01:53.287Z,0
2018-10-02T05:02:19.443Z,0
2018-10-02T05:02:45.571Z,0
2018-10-02T05:03:11.719Z,0
2018-10-02T05:03:37.864Z,0
2018-10-02T05:04:03.996Z,0
2018-10-02T05:04:30.135Z,0
2018-10-02T05:04:56.266Z,0
2018-10-02T05:05:22.415Z,0
2018-10-02T05:05:48.576Z,0
2018-10-02T05:06:14.706Z,0
2018-10-02T05:06:40.841Z,4
2018-10-02T05:07:06.969Z,4
2018-10-02T05:07:33.123Z,4
2018-10-02T05:07:59.250Z,4
2018-10-02T05:08:25.493Z,4
2018-10-02T05:08:51.632Z,4
2018-10-02T05:09:17.686Z,0
2018-10-02T05:09:43.818Z,0
2018-10-02T05:10:09.951Z,0
2018-10-02T05:10:36.125Z,4
2018-10-02T05:11:02.273Z,4
2018-10-02T05:11:28.411Z,4
2018-10-02T05:11:54.572Z,4
2018-10-02T05:12:20.702Z,4
2018-10-02T05:12:46.830Z,8
2018-10-02T05:13:12.982Z,4
2018-10-02T05:13:39.117Z,4
2018-10-02T05:14:05.339Z,4
2018-10-02T05:14:31.433Z,4
2018-10-02T05:14:57.563Z,8
2018-10-02T05:15:23.701Z,8
2018-10-02T05:15:49.861Z,8
2018-10-02T05:16:16.016Z,8
2018-10-02T05:16:42.147Z,8
2018-10-02T05:17:08.306Z,8
2018-10-02T05:17:34.422Z,8
2018-10-02T05:18:00.564Z,8
2018-10-02T05:18:26.712Z,8
2018-10-02T05:18:52.847Z,12
2018-10-02T05:19:18.984Z,8
2018-10-02T05:19:45.109Z,8
2018-10-02T05:20:11.235Z,8
2018-10-02T05:20:37.377Z,12
2018-10-02T05:21:03.510Z,12
2018-10-02T05:21:29.634Z,12
2018-10-02T05:21:55.816Z,12
2018-10-02T05:22:21.950Z,12
2018-10-02T05:22:48.086Z,16
2018-10-02T05:23:14.217Z,16
2018-10-02T05:23:40.356Z,16
2018-10-02T05:24:06.493Z,12
2018-10-02T05:24:32.642Z,12
2018-10-02T05:24:58.777Z,16
2018-10-02T05:25:24.905Z,16
2018-10-02T05:25:51.044Z,16
2018-10-02T05:26:17.195Z,20
2018-10-02T05:26:43.358Z,20
2018-10-02T05:27:09.556Z,16
2018-10-02T05:27:35.636Z,20
2018-10-02T05:28:01.759Z,24
2018-10-02T05:28:27.890Z,20
2018-10-02T05:28:54.014Z,24
2018-10-02T05:29:20.154Z,24
2018-10-02T05:29:46.277Z,28
2018-10-02T05:30:12.443Z,28
2018-10-02T05:30:38.577Z,28
2018-10-02T05:31:04.707Z,32
2018-10-02T05:31:30.851Z,32
2018-10-02T05:31:57.005Z,40
2018-10-02T05:32:23.140Z,40
2018-10-02T05:32:49.283Z,40
2018-10-02T05:33:15.421Z,44
2018-10-02T05:33:41.641Z,44
2018-10-02T05:34:07.722Z,48
2018-10-02T05:34:33.858Z,48
2018-10-02T05:35:00.117Z,52
2018-10-02T05:35:26.207Z,56
2018-10-02T05:35:52.275Z,60
2018-10-02T05:36:18.402Z,60
2018-10-02T05:36:44.563Z,64
2018-10-02T05:37:10.717Z,64
2018-10-02T05:37:36.873Z,64
2018-10-02T05:38:03.008Z,64
2018-10-02T05:38:29.136Z,64
2018-10-02T05:38:55.271Z,68
2018-10-02T05:39:21.396Z,72
2018-10-02T05:39:47.526Z,76
2018-10-02T05:40:13.663Z,80
2018-10-02T05:40:39.834Z,88
2018-10-02T05:41:05.963Z,92
2018-10-02T05:41:32.096Z,100
2018-10-02T05:41:58.249Z,104
2018-10-02T05:42:24.384Z,104
2018-10-02T05:42:50.592Z,108
2018-10-02T05:43:16.690Z,112
2018-10-02T05:43:42.823Z,116
2018-10-02T05:44:08.979Z,116
2018-10-02T05:44:35.110Z,124
2018-10-02T05:45:01.265Z,128
2018-10-02T05:45:27.404Z,132
2018-10-02T05:45:53.555Z,132
2018-10-02T05:46:19.694Z,132
2018-10-02T05:46:45.825Z,132
2018-10-02T05:47:12.006Z,136
2018-10-02T05:47:38.147Z,140
2018-10-02T05:48:04.272Z,144
2018-10-02T05:48:30.408Z,152
2018-10-02T05:48:56.534Z,160
2018-10-02T05:49:22.854Z,176
2018-10-02T05:49:48.944Z,188
2018-10-02T05:50:15.077Z,200
2018-10-02T05:50:41.203Z,212
2018-10-02T05:51:07.329Z,220
2018-10-02T05:51:33.455Z,232
2018-10-02T05:51:59.588Z,240
2018-10-02T05:52:25.721Z,248
2018-10-02T05:52:51.855Z,256
2018-10-02T05:53:17.982Z,264
2018-10-02T05:53:44.115Z,272
2018-10-02T05:54:10.247Z,284
2018-10-02T05:54:36.379Z,284
2018-10-02T05:55:02.512Z,284
2018-10-02T05:55:28.644Z,280
2018-10-02T05:55:54.775Z,284
2018-10-02T05:56:20.915Z,288
2018-10-02T05:56:47.081Z,300
2018-10-02T05:57:13.206Z,304
2018-10-02T05:57:39.358Z,308
2018-10-02T05:58:05.480Z,312
2018-10-02T05:58:31.703Z,312
2018-10-02T05:58:57.827Z,316
2018-10-02T05:59:23.956Z,324
2018-10-02T05:59:50.132Z,328
2018-10-02T06:00:16.269Z,336
2018-10-02T06:00:42.400Z,344
2018-10-02T06:01:08.556Z,356
2018-10-02T06:01:34.714Z,372
2018-10-02T06:02:00.844Z,388
2018-10-02T06:02:26.980Z,404
2018-10-02T06:02:53.136Z,420
2018-10-02T06:03:19.294Z,432
2018-10-02T06:03:45.491Z,444
2018-10-02T06:04:11.575Z,448
2018-10-02T06:04:37.707Z,444
2018-10-02T06:05:03.865Z,444
2018-10-02T06:05:29.997Z,440
2018-10-02T06:05:56.133Z,436
2018-10-02T06:06:22.266Z,424
2018-10-02T06:06:48.423Z,416
2018-10-02T06:07:14.552Z,420
2018-10-02T06:07:40.711Z,428
2018-10-02T06:08:06.868Z,432
2018-10-02T06:08:32.973Z,436
2018-10-02T06:08:59.116Z,428
2018-10-02T06:09:25.395Z,424
2018-10-02T06:09:51.655Z,420
2018-10-02T06:10:17.866Z,420
2018-10-02T06:10:44.550Z,424
2018-10-02T06:11:10.677Z,436
2018-10-02T06:11:36.797Z,456
2018-10-02T06:12:02.929Z,468
2018-10-02T06:12:29.116Z,480
2018-10-02T06:12:55.245Z,488
2018-10-02T06:13:21.373Z,508
2018-10-02T06:13:48.168Z,532
2018-10-02T06:14:14.296Z,544
2018-10-02T06:14:40.456Z,548
2018-10-02T06:15:06.580Z,556
2018-10-02T06:15:32.744Z,568
2018-10-02T06:15:58.883Z,588
2018-10-02T06:16:25.041Z,596
2018-10-02T06:16:51.772Z,616
2018-10-02T06:17:17.853Z,640
2018-10-02T06:17:43.997Z,664
2018-10-02T06:18:10.160Z,688
2018-10-02T06:18:36.346Z,704
2018-10-02T06:19:02.441Z,728
2018-10-02T06:19:28.590Z,760
2018-10-02T06:19:54.728Z,808
2018-10-02T06:20:20.858Z,860
2018-10-02T06:20:46.990Z,916
2018-10-02T06:21:13.147Z,972
2018-10-02T06:21:39.335Z,1012
2018-10-02T06:22:05.473Z,1032
2018-10-02T06:22:31.623Z,1076
2018-10-02T06:22:57.767Z,1128